sensor_id;sensor_type;location;lat;lon;timestamp;temperature;humidity
69162;DHT22;56269;51.738;21.652;2022-08-04T00:00:14;14.86;99.39
69162;DHT22;56269;51.738;21.652;2022-08-04T00:05:46;14.81;99.01
69162;DHT22;56269;51.738;21.652;2022-08-04T00:08:24;14.81;99.22
69162;DHT22;56269;51.738;21.652;2022-08-04T00:10:54;14.83;99.64
69162;DHT22;56269;51.738;21.652;2022-08-04T00:13:24;14.83;99.65
69162;DHT22;56269;51.738;21.652;2022-08-04T00:15:52;14.89;99.99
69162;DHT22;56269;51.738;21.652;2022-08-04T00:18:22;14.87;98.90
69162;DHT22;56269;51.738;21.652;2022-08-04T00:20:55;14.97;99.90
69162;DHT22;56269;51.738;21.652;2022-08-04T00:23:25;14.86;99.46
69162;DHT22;56269;51.738;21.652;2022-08-04T00:25:52;14.84;99.99
69162;DHT22;56269;51.738;21.652;2022-08-04T00:28:20;14.87;99.56
69162;DHT22;56269;51.738;21.652;2022-08-04T00:30:46;14.86;99.99
69162;DHT22;56269;51.738;21.652;2022-08-04T00:33:21;14.89;99.99
69162;DHT22;56269;51.738;21.652;2022-08-04T00:35:48;15.00;98.88
69162;DHT22;56269;51.738;21.652;2022-08-04T00:38:16;14.91;99.74
69162;DHT22;56269;51.738;21.652;2022-08-04T00:40:59;14.91;99.64
69162;DHT22;56269;51.738;21.652;2022-08-04T00:44:02;14.86;99.99
69162;DHT22;56269;51.738;21.652;2022-08-04T00:52:32;14.83;99.95
69162;DHT22;56269;51.738;21.652;2022-08-04T01:01:15;14.65;99.99
69162;DHT22;56269;51.738;21.652;2022-08-04T01:03:50;14.60;99.02
69162;DHT22;56269;51.738;21.652;2022-08-04T01:09:01;14.48;99.99
69162;DHT22;56269;51.738;21.652;2022-08-04T01:14:53;14.33;99.58
69162;DHT22;56269;51.738;21.652;2022-08-04T01:20:06;14.29;99.99
69162;DHT22;56269;51.738;21.652;2022-08-04T01:30:24;14.19;99.99
69162;DHT22;56269;51.738;21.652;2022-08-04T01:32:54;14.15;99.99
69162;DHT22;56269;51.738;21.652;2022-08-04T01:35:28;14.14;99.99
69162;DHT22;56269;51.738;21.652;2022-08-04T01:40:37;14.07;99.99
69162;DHT22;56269;51.738;21.652;2022-08-04T01:43:04;14.04;99.99
69162;DHT22;56269;51.738;21.652;2022-08-04T01:45:30;14.00;99.99
69162;DHT22;56269;51.738;21.652;2022-08-04T01:47:56;14.05;99.99
69162;DHT22;56269;51.738;21.652;2022-08-04T01:50:23;14.02;99.99
69162;DHT22;56269;51.738;21.652;2022-08-04T01:52:53;13.98;99.99
69162;DHT22;56269;51.738;21.652;2022-08-04T01:55:19;13.94;99.99
69162;DHT22;56269;51.738;21.652;2022-08-04T01:57:51;13.89;99.99
69162;DHT22;56269;51.738;21.652;2022-08-04T02:00:21;13.85;99.99
69162;DHT22;56269;51.738;21.652;2022-08-04T02:02:49;13.91;99.99
69162;DHT22;56269;51.738;21.652;2022-08-04T02:05:17;13.87;99.99
69162;DHT22;56269;51.738;21.652;2022-08-04T02:11:15;13.77;99.99
69162;DHT22;56269;51.738;21.652;2022-08-04T02:14:13;13.68;99.99
69162;DHT22;56269;51.738;21.652;2022-08-04T02:17:21;13.64;99.99
69162;DHT22;56269;51.738;21.652;2022-08-04T02:20:03;13.56;99.99
69162;DHT22;56269;51.738;21.652;2022-08-04T02:22:33;13.54;99.99
69162;DHT22;56269;51.738;21.652;2022-08-04T02:25:06;13.51;99.99
69162;DHT22;56269;51.738;21.652;2022-08-04T02:30:40;13.42;99.99
69162;DHT22;56269;51.738;21.652;2022-08-04T02:33:12;13.37;99.99
69162;DHT22;56269;51.738;21.652;2022-08-04T02:35:40;13.32;99.99
69162;DHT22;56269;51.738;21.652;2022-08-04T02:40:50;13.26;99.99
69162;DHT22;56269;51.738;21.652;2022-08-04T02:43:18;13.24;99.99
69162;DHT22;56269;51.738;21.652;2022-08-04T02:45:45;13.30;99.99
69162;DHT22;56269;51.738;21.652;2022-08-04T02:48:13;13.28;99.99
69162;DHT22;56269;51.738;21.652;2022-08-04T02:50:42;13.35;99.99
69162;DHT22;56269;51.738;21.652;2022-08-04T02:53:10;13.42;99.99
69162;DHT22;56269;51.738;21.652;2022-08-04T02:55:40;13.36;99.99
69162;DHT22;56269;51.738;21.652;2022-08-04T02:58:09;13.37;99.99
69162;DHT22;56269;51.738;21.652;2022-08-04T03:00:36;13.33;99.99
69162;DHT22;56269;51.738;21.652;2022-08-04T03:03:17;13.37;99.99
69162;DHT22;56269;51.738;21.652;2022-08-04T03:12:02;13.24;99.99
69162;DHT22;56269;51.738;21.652;2022-08-04T03:23:13;13.44;99.99
69162;DHT22;56269;51.738;21.652;2022-08-04T03:25:57;13.44;99.99
69162;DHT22;56269;51.738;21.652;2022-08-04T03:41:50;13.58;99.99
69162;DHT22;56269;51.738;21.652;2022-08-04T03:44:52;13.64;99.99
69162;DHT22;56269;51.738;21.652;2022-08-04T03:53:42;13.85;99.99
69162;DHT22;56269;51.738;21.652;2022-08-04T04:07:58;14.18;99.99
69162;DHT22;56269;51.738;21.652;2022-08-04T04:13:13;14.35;99.99
69162;DHT22;56269;51.738;21.652;2022-08-04T04:16:17;14.46;99.99
69162;DHT22;56269;51.738;21.652;2022-08-04T04:30:12;15.16;99.74
69162;DHT22;56269;51.738;21.652;2022-08-04T04:32:46;15.45;99.53
69162;DHT22;56269;51.738;21.652;2022-08-04T04:44:13;16.83;93.72
69162;DHT22;56269;51.738;21.652;2022-08-04T04:52:35;18.20;90.08
69162;DHT22;56269;51.738;21.652;2022-08-04T04:55:20;18.75;86.03
69162;DHT22;56269;51.738;21.652;2022-08-04T04:57:50;19.13;83.87
69162;DHT22;56269;51.738;21.652;2022-08-04T05:00:17;19.53;83.49
69162;DHT22;56269;51.738;21.652;2022-08-04T05:14:29;21.21;79.89
69162;DHT22;56269;51.738;21.652;2022-08-04T05:19:43;21.38;75.25
69162;DHT22;56269;51.738;21.652;2022-08-04T05:23:16;21.51;74.46
69162;DHT22;56269;51.738;21.652;2022-08-04T05:27:47;22.09;74.15
69162;DHT22;56269;51.738;21.652;2022-08-04T05:30:16;22.25;72.28
69162;DHT22;56269;51.738;21.652;2022-08-04T05:33:04;22.30;71.42
69162;DHT22;56269;51.738;21.652;2022-08-04T05:35:35;22.37;68.75
69162;DHT22;56269;51.738;21.652;2022-08-04T05:38:02;22.59;70.73
69162;DHT22;56269;51.738;21.652;2022-08-04T05:40:29;22.64;70.84
69162;DHT22;56269;51.738;21.652;2022-08-04T05:42:56;22.77;68.89
69162;DHT22;56269;51.738;21.652;2022-08-04T05:45:23;23.01;68.65
69162;DHT22;56269;51.738;21.652;2022-08-04T05:47:51;23.22;67.56
69162;DHT22;56269;51.738;21.652;2022-08-04T05:50:19;23.31;65.06
69162;DHT22;56269;51.738;21.652;2022-08-04T05:52:45;23.52;64.55
69162;DHT22;56269;51.738;21.652;2022-08-04T05:55:12;23.65;63.68
69162;DHT22;56269;51.738;21.652;2022-08-04T05:57:40;23.83;63.66
69162;DHT22;56269;51.738;21.652;2022-08-04T06:00:07;24.02;63.48
69162;DHT22;56269;51.738;21.652;2022-08-04T06:02:34;24.30;61.60
69162;DHT22;56269;51.738;21.652;2022-08-04T06:05:04;24.41;60.24
69162;DHT22;56269;51.738;21.652;2022-08-04T06:07:32;24.72;62.20
69162;DHT22;56269;51.738;21.652;2022-08-04T06:09:59;24.68;59.97
69162;DHT22;56269;51.738;21.652;2022-08-04T06:12:37;24.63;59.11
69162;DHT22;56269;51.738;21.652;2022-08-04T06:15:08;24.61;59.62
69162;DHT22;56269;51.738;21.652;2022-08-04T06:17:41;24.75;59.57
69162;DHT22;56269;51.738;21.652;2022-08-04T06:20:08;25.07;61.58
69162;DHT22;56269;51.738;21.652;2022-08-04T06:22:39;25.40;61.16
69162;DHT22;56269;51.738;21.652;2022-08-04T06:25:07;25.39;60.13
69162;DHT22;56269;51.738;21.652;2022-08-04T06:27:35;25.22;58.87
69162;DHT22;56269;51.738;21.652;2022-08-04T06:30:01;25.39;58.16
69162;DHT22;56269;51.738;21.652;2022-08-04T06:32:28;25.69;62.81
69162;DHT22;56269;51.738;21.652;2022-08-04T06:35:14;26.04;58.59
69162;DHT22;56269;51.738;21.652;2022-08-04T06:37:44;26.25;59.20
69162;DHT22;56269;51.738;21.652;2022-08-04T06:40:13;26.24;58.04
69162;DHT22;56269;51.738;21.652;2022-08-04T06:42:40;26.56;59.43
69162;DHT22;56269;51.738;21.652;2022-08-04T06:45:09;26.53;55.20
69162;DHT22;56269;51.738;21.652;2022-08-04T06:47:37;26.18;57.24
69162;DHT22;56269;51.738;21.652;2022-08-04T06:50:05;26.56;57.01
69162;DHT22;56269;51.738;21.652;2022-08-04T06:52:31;26.61;55.03
69162;DHT22;56269;51.738;21.652;2022-08-04T06:54:57;26.76;54.36
69162;DHT22;56269;51.738;21.652;2022-08-04T06:57:28;27.16;54.39
69162;DHT22;56269;51.738;21.652;2022-08-04T07:00:00;27.60;53.49
69162;DHT22;56269;51.738;21.652;2022-08-04T07:02:30;27.55;51.88
69162;DHT22;56269;51.738;21.652;2022-08-04T07:04:58;27.24;52.16
69162;DHT22;56269;51.738;21.652;2022-08-04T07:07:24;27.64;52.18
69162;DHT22;56269;51.738;21.652;2022-08-04T07:09:50;27.60;50.57
69162;DHT22;56269;51.738;21.652;2022-08-04T07:12:17;27.41;51.25
69162;DHT22;56269;51.738;21.652;2022-08-04T07:14:47;28.02;51.00
69162;DHT22;56269;51.738;21.652;2022-08-04T07:17:14;27.80;49.52
69162;DHT22;56269;51.738;21.652;2022-08-04T07:19:41;27.81;50.97
69162;DHT22;56269;51.738;21.652;2022-08-04T07:22:09;28.19;51.13
69162;DHT22;56269;51.738;21.652;2022-08-04T07:24:37;28.01;49.84
69162;DHT22;56269;51.738;21.652;2022-08-04T07:27:05;27.95;49.00
69162;DHT22;56269;51.738;21.652;2022-08-04T07:29:33;28.04;48.74
69162;DHT22;56269;51.738;21.652;2022-08-04T07:32:00;28.29;47.83
69162;DHT22;56269;51.738;21.652;2022-08-04T07:34:28;28.09;49.32
69162;DHT22;56269;51.738;21.652;2022-08-04T07:36:57;28.11;49.18
69162;DHT22;56269;51.738;21.652;2022-08-04T07:39:26;28.31;50.11
69162;DHT22;56269;51.738;21.652;2022-08-04T07:41:53;28.08;46.57
69162;DHT22;56269;51.738;21.652;2022-08-04T07:44:20;28.43;46.54
69162;DHT22;56269;51.738;21.652;2022-08-04T07:46:46;28.52;47.23
69162;DHT22;56269;51.738;21.652;2022-08-04T07:49:13;28.33;45.45
69162;DHT22;56269;51.738;21.652;2022-08-04T07:51:39;28.24;46.69
69162;DHT22;56269;51.738;21.652;2022-08-04T07:54:07;28.94;46.99
69162;DHT22;56269;51.738;21.652;2022-08-04T07:56:37;29.38;47.60
69162;DHT22;56269;51.738;21.652;2022-08-04T07:59:04;29.48;45.70
69162;DHT22;56269;51.738;21.652;2022-08-04T08:01:33;29.51;44.96
69162;DHT22;56269;51.738;21.652;2022-08-04T08:04:00;28.79;46.45
69162;DHT22;56269;51.738;21.652;2022-08-04T08:06:27;29.33;45.71
69162;DHT22;56269;51.738;21.652;2022-08-04T08:08:58;29.15;42.56
69162;DHT22;56269;51.738;21.652;2022-08-04T08:11:27;29.55;44.51
69162;DHT22;56269;51.738;21.652;2022-08-04T08:13:54;29.82;42.67
69162;DHT22;56269;51.738;21.652;2022-08-04T08:16:20;29.68;43.10
69162;DHT22;56269;51.738;21.652;2022-08-04T08:18:48;29.54;41.50
69162;DHT22;56269;51.738;21.652;2022-08-04T08:21:14;29.66;41.49
69162;DHT22;56269;51.738;21.652;2022-08-04T08:23:49;29.55;42.00
69162;DHT22;56269;51.738;21.652;2022-08-04T08:26:15;29.61;41.31
69162;DHT22;56269;51.738;21.652;2022-08-04T08:28:42;29.39;43.72
69162;DHT22;56269;51.738;21.652;2022-08-04T08:31:08;29.64;43.18
69162;DHT22;56269;51.738;21.652;2022-08-04T08:33:34;30.19;41.31
69162;DHT22;56269;51.738;21.652;2022-08-04T08:36:12;30.13;39.25
69162;DHT22;56269;51.738;21.652;2022-08-04T08:41:39;29.64;39.97
69162;DHT22;56269;51.738;21.652;2022-08-04T08:47:13;30.27;40.50
69162;DHT22;56269;51.738;21.652;2022-08-04T08:52:20;29.82;41.46
69162;DHT22;56269;51.738;21.652;2022-08-04T08:54:59;29.74;39.80
69162;DHT22;56269;51.738;21.652;2022-08-04T08:57:45;30.16;40.27
69162;DHT22;56269;51.738;21.652;2022-08-04T09:00:50;30.27;42.35
69162;DHT22;56269;51.738;21.652;2022-08-04T09:11:42;29.78;41.89
69162;DHT22;56269;51.738;21.652;2022-08-04T09:14:20;29.98;41.67
69162;DHT22;56269;51.738;21.652;2022-08-04T09:16:54;29.98;41.12
69162;DHT22;56269;51.738;21.652;2022-08-04T09:19:39;30.46;41.43
69162;DHT22;56269;51.738;21.652;2022-08-04T09:30:16;30.23;40.85
69162;DHT22;56269;51.738;21.652;2022-08-04T09:32:57;30.09;42.36
69162;DHT22;56269;51.738;21.652;2022-08-04T09:35:51;30.68;41.68
69162;DHT22;56269;51.738;21.652;2022-08-04T09:41:07;31.12;41.46
69162;DHT22;56269;51.738;21.652;2022-08-04T09:46:41;30.68;42.14
69162;DHT22;56269;51.738;21.652;2022-08-04T09:49:15;30.20;41.16
69162;DHT22;56269;51.738;21.652;2022-08-04T09:54:25;30.81;40.47
69162;DHT22;56269;51.738;21.652;2022-08-04T10:00:02;30.77;39.29
69162;DHT22;56269;51.738;21.652;2022-08-04T10:02:33;30.77;38.57
69162;DHT22;56269;51.738;21.652;2022-08-04T10:05:03;30.78;38.61
69162;DHT22;56269;51.738;21.652;2022-08-04T10:10:18;31.10;40.41
69162;DHT22;56269;51.738;21.652;2022-08-04T10:13:00;30.35;41.00
69162;DHT22;56269;51.738;21.652;2022-08-04T10:15:31;30.48;39.83
69162;DHT22;56269;51.738;21.652;2022-08-04T10:18:06;30.83;39.08
69162;DHT22;56269;51.738;21.652;2022-08-04T10:26:34;31.90;39.76
69162;DHT22;56269;51.738;21.652;2022-08-04T10:29:08;31.21;38.48
69162;DHT22;56269;51.738;21.652;2022-08-04T10:31:42;31.34;40.42
69162;DHT22;56269;51.738;21.652;2022-08-04T10:34:13;31.37;38.83
69162;DHT22;56269;51.738;21.652;2022-08-04T10:37:13;31.10;38.92
69162;DHT22;56269;51.738;21.652;2022-08-04T10:39:54;31.50;41.62
69162;DHT22;56269;51.738;21.652;2022-08-04T10:42:57;32.16;40.65
69162;DHT22;56269;51.738;21.652;2022-08-04T10:45:49;32.44;38.20
69162;DHT22;56269;51.738;21.652;2022-08-04T10:51:03;32.57;37.84
69162;DHT22;56269;51.738;21.652;2022-08-04T10:53:33;32.80;35.75
69162;DHT22;56269;51.738;21.652;2022-08-04T10:56:12;32.44;36.86
69162;DHT22;56269;51.738;21.652;2022-08-04T10:58:45;32.37;34.03
69162;DHT22;56269;51.738;21.652;2022-08-04T11:01:22;31.46;36.83
69162;DHT22;56269;51.738;21.652;2022-08-04T11:03:59;31.72;35.05
69162;DHT22;56269;51.738;21.652;2022-08-04T11:06:27;31.18;36.50
69162;DHT22;56269;51.738;21.652;2022-08-04T11:08:54;31.34;37.08
69162;DHT22;56269;51.738;21.652;2022-08-04T11:11:32;31.73;35.22
69162;DHT22;56269;51.738;21.652;2022-08-04T11:14:03;31.90;35.91
69162;DHT22;56269;51.738;21.652;2022-08-04T11:22:05;31.75;36.95
69162;DHT22;56269;51.738;21.652;2022-08-04T11:24:43;31.96;37.91
69162;DHT22;56269;51.738;21.652;2022-08-04T11:27:15;32.45;37.56
69162;DHT22;56269;51.738;21.652;2022-08-04T11:30:05;32.40;37.24
69162;DHT22;56269;51.738;21.652;2022-08-04T11:35:28;32.58;35.98
69162;DHT22;56269;51.738;21.652;2022-08-04T11:38:18;32.48;37.74
69162;DHT22;56269;51.738;21.652;2022-08-04T11:40:48;32.45;37.41
69162;DHT22;56269;51.738;21.652;2022-08-04T11:43:25;32.45;36.67
69162;DHT22;56269;51.738;21.652;2022-08-04T11:46:02;32.61;36.69
69162;DHT22;56269;51.738;21.652;2022-08-04T11:48:36;32.95;36.39
69162;DHT22;56269;51.738;21.652;2022-08-04T11:51:03;32.84;36.66
69162;DHT22;56269;51.738;21.652;2022-08-04T11:53:30;32.31;38.04
69162;DHT22;56269;51.738;21.652;2022-08-04T11:56:01;32.50;36.73
69162;DHT22;56269;51.738;21.652;2022-08-04T11:58:28;32.41;35.61
69162;DHT22;56269;51.738;21.652;2022-08-04T12:04:12;31.69;36.54
69162;DHT22;56269;51.738;21.652;2022-08-04T12:07:03;32.14;37.14
69162;DHT22;56269;51.738;21.652;2022-08-04T12:10:08;32.14;36.25
69162;DHT22;56269;51.738;21.652;2022-08-04T12:20:16;32.41;34.35
69162;DHT22;56269;51.738;21.652;2022-08-04T12:22:47;32.20;32.96
69162;DHT22;56269;51.738;21.652;2022-08-04T12:25:20;32.34;33.18
69162;DHT22;56269;51.738;21.652;2022-08-04T12:27:52;32.88;32.83
69162;DHT22;56269;51.738;21.652;2022-08-04T12:30:21;32.63;33.09
69162;DHT22;56269;51.738;21.652;2022-08-04T12:33:03;32.61;36.59
69162;DHT22;56269;51.738;21.652;2022-08-04T12:35:50;32.19;33.67
69162;DHT22;56269;51.738;21.652;2022-08-04T12:38:20;32.72;31.56
69162;DHT22;56269;51.738;21.652;2022-08-04T12:40:51;32.80;33.10
69162;DHT22;56269;51.738;21.652;2022-08-04T12:43:37;32.91;32.06
69162;DHT22;56269;51.738;21.652;2022-08-04T12:46:06;32.89;32.24
69162;DHT22;56269;51.738;21.652;2022-08-04T12:48:35;32.34;31.35
69162;DHT22;56269;51.738;21.652;2022-08-04T12:51:02;32.81;33.69
69162;DHT22;56269;51.738;21.652;2022-08-04T12:53:32;32.98;33.31
69162;DHT22;56269;51.738;21.652;2022-08-04T12:55:59;32.57;32.99
69162;DHT22;56269;51.738;21.652;2022-08-04T12:58:27;32.19;32.19
69162;DHT22;56269;51.738;21.652;2022-08-04T13:01:03;32.02;32.13
69162;DHT22;56269;51.738;21.652;2022-08-04T13:03:41;32.07;31.92
69162;DHT22;56269;51.738;21.652;2022-08-04T13:06:10;32.33;33.85
69162;DHT22;56269;51.738;21.652;2022-08-04T13:08:41;32.24;31.05
69162;DHT22;56269;51.738;21.652;2022-08-04T13:11:09;32.94;33.51
69162;DHT22;56269;51.738;21.652;2022-08-04T13:13:37;33.22;33.74
69162;DHT22;56269;51.738;21.652;2022-08-04T13:16:06;32.54;32.43
69162;DHT22;56269;51.738;21.652;2022-08-04T13:18:37;32.58;32.22
69162;DHT22;56269;51.738;21.652;2022-08-04T13:21:18;32.58;31.33
69162;DHT22;56269;51.738;21.652;2022-08-04T13:23:53;31.59;34.62
69162;DHT22;56269;51.738;21.652;2022-08-04T13:26:21;30.94;33.84
69162;DHT22;56269;51.738;21.652;2022-08-04T13:28:49;31.66;35.39
69162;DHT22;56269;51.738;21.652;2022-08-04T13:31:19;31.48;34.35
69162;DHT22;56269;51.738;21.652;2022-08-04T13:33:49;32.14;33.46
69162;DHT22;56269;51.738;21.652;2022-08-04T13:36:17;32.19;31.78
69162;DHT22;56269;51.738;21.652;2022-08-04T13:38:56;32.02;32.00
69162;DHT22;56269;51.738;21.652;2022-08-04T13:41:24;32.21;33.89
69162;DHT22;56269;51.738;21.652;2022-08-04T13:43:56;32.05;33.27
69162;DHT22;56269;51.738;21.652;2022-08-04T13:46:28;31.88;32.26
69162;DHT22;56269;51.738;21.652;2022-08-04T13:48:58;31.90;32.75
69162;DHT22;56269;51.738;21.652;2022-08-04T13:51:27;32.16;32.64
69162;DHT22;56269;51.738;21.652;2022-08-04T13:53:59;32.34;34.32
69162;DHT22;56269;51.738;21.652;2022-08-04T13:56:35;32.12;33.48
69162;DHT22;56269;51.738;21.652;2022-08-04T13:59:05;31.59;32.64
69162;DHT22;56269;51.738;21.652;2022-08-04T14:01:34;32.02;33.79
69162;DHT22;56269;51.738;21.652;2022-08-04T14:04:19;32.07;34.48
69162;DHT22;56269;51.738;21.652;2022-08-04T14:06:50;32.58;37.60
69162;DHT22;56269;51.738;21.652;2022-08-04T14:09:23;32.36;33.80
69162;DHT22;56269;51.738;21.652;2022-08-04T14:11:52;32.00;33.67
69162;DHT22;56269;51.738;21.652;2022-08-04T14:14:29;31.72;32.87
69162;DHT22;56269;51.738;21.652;2022-08-04T14:19:27;31.70;34.12
69162;DHT22;56269;51.738;21.652;2022-08-04T14:21:53;31.78;34.53
69162;DHT22;56269;51.738;21.652;2022-08-04T14:24:27;31.80;35.00
69162;DHT22;56269;51.738;21.652;2022-08-04T14:26:59;31.70;31.93
69162;DHT22;56269;51.738;21.652;2022-08-04T14:29:35;31.69;34.19
69162;DHT22;56269;51.738;21.652;2022-08-04T14:32:04;31.62;32.77
69162;DHT22;56269;51.738;21.652;2022-08-04T14:34:31;31.69;32.53
69162;DHT22;56269;51.738;21.652;2022-08-04T14:37:06;32.02;34.46
69162;DHT22;56269;51.738;21.652;2022-08-04T14:39:42;31.42;35.03
69162;DHT22;56269;51.738;21.652;2022-08-04T14:42:08;31.78;34.93
69162;DHT22;56269;51.738;21.652;2022-08-04T14:44:57;32.07;34.65
69162;DHT22;56269;51.738;21.652;2022-08-04T14:47:39;31.80;33.74
69162;DHT22;56269;51.738;21.652;2022-08-04T14:50:08;31.61;33.63
69162;DHT22;56269;51.738;21.652;2022-08-04T14:52:35;31.61;35.86
69162;DHT22;56269;51.738;21.652;2022-08-04T14:55:20;31.69;33.68
69162;DHT22;56269;51.738;21.652;2022-08-04T14:57:48;31.92;35.68
69162;DHT22;56269;51.738;21.652;2022-08-04T15:02:51;31.35;33.27
69162;DHT22;56269;51.738;21.652;2022-08-04T15:05:19;31.43;35.19
69162;DHT22;56269;51.738;21.652;2022-08-04T15:07:45;31.45;33.96
69162;DHT22;56269;51.738;21.652;2022-08-04T15:10:12;31.49;35.05
69162;DHT22;56269;51.738;21.652;2022-08-04T15:12:38;31.37;35.55
69162;DHT22;56269;51.738;21.652;2022-08-04T15:15:04;31.28;36.90
69162;DHT22;56269;51.738;21.652;2022-08-04T15:17:30;31.31;39.07
69162;DHT22;56269;51.738;21.652;2022-08-04T15:19:56;31.52;36.67
69162;DHT22;56269;51.738;21.652;2022-08-04T15:22:23;31.53;35.16
69162;DHT22;56269;51.738;21.652;2022-08-04T15:24:49;31.62;36.68
69162;DHT22;56269;51.738;21.652;2022-08-04T15:27:16;31.53;35.39
69162;DHT22;56269;51.738;21.652;2022-08-04T15:29:45;31.73;37.67
69162;DHT22;56269;51.738;21.652;2022-08-04T15:32:16;31.42;35.68
69162;DHT22;56269;51.738;21.652;2022-08-04T15:34:50;31.27;36.54
69162;DHT22;56269;51.738;21.652;2022-08-04T15:37:26;31.41;38.26
69162;DHT22;56269;51.738;21.652;2022-08-04T15:40:13;31.48;35.23
69162;DHT22;56269;51.738;21.652;2022-08-04T15:45:54;30.95;38.22
69162;DHT22;56269;51.738;21.652;2022-08-04T15:48:23;30.71;37.46
69162;DHT22;56269;51.738;21.652;2022-08-04T15:53:26;30.12;40.79
69162;DHT22;56269;51.738;21.652;2022-08-04T15:55:52;30.43;38.48
69162;DHT22;56269;51.738;21.652;2022-08-04T15:58:20;30.50;38.98
69162;DHT22;56269;51.738;21.652;2022-08-04T16:18:52;30.06;42.09
69162;DHT22;56269;51.738;21.652;2022-08-04T16:21:23;30.02;41.45
69162;DHT22;56269;51.738;21.652;2022-08-04T16:37:08;29.30;47.45
69162;DHT22;56269;51.738;21.652;2022-08-04T16:39:34;29.10;44.06
69162;DHT22;56269;51.738;21.652;2022-08-04T16:50:20;28.63;48.63
69162;DHT22;56269;51.738;21.652;2022-08-04T16:52:49;28.48;50.79
69162;DHT22;56269;51.738;21.652;2022-08-04T16:55:27;28.24;51.44
69162;DHT22;56269;51.738;21.652;2022-08-04T16:57:55;27.78;50.42
69162;DHT22;56269;51.738;21.652;2022-08-04T17:00:33;27.54;56.26
69162;DHT22;56269;51.738;21.652;2022-08-04T17:03:08;27.37;50.25
69162;DHT22;56269;51.738;21.652;2022-08-04T17:05:35;27.04;57.88
69162;DHT22;56269;51.738;21.652;2022-08-04T17:08:02;26.78;52.32
69162;DHT22;56269;51.738;21.652;2022-08-04T17:10:43;26.53;60.40
69162;DHT22;56269;51.738;21.652;2022-08-04T17:13:29;26.40;59.87
69162;DHT22;56269;51.738;21.652;2022-08-04T17:15:58;25.97;63.58
69162;DHT22;56269;51.738;21.652;2022-08-04T17:18:28;25.73;60.58
69162;DHT22;56269;51.738;21.652;2022-08-04T17:20:56;25.36;60.97
69162;DHT22;56269;51.738;21.652;2022-08-04T17:23:38;25.18;62.20
69162;DHT22;56269;51.738;21.652;2022-08-04T17:26:11;25.15;61.79
69162;DHT22;56269;51.738;21.652;2022-08-04T17:28:38;25.22;64.34
69162;DHT22;56269;51.738;21.652;2022-08-04T17:31:07;25.59;61.88
69162;DHT22;56269;51.738;21.652;2022-08-04T17:33:37;25.65;62.91
69162;DHT22;56269;51.738;21.652;2022-08-04T17:36:05;25.46;62.87
69162;DHT22;56269;51.738;21.652;2022-08-04T17:38:38;25.51;60.49
69162;DHT22;56269;51.738;21.652;2022-08-04T17:41:08;25.20;64.07
69162;DHT22;56269;51.738;21.652;2022-08-04T17:48:41;24.17;67.11
69162;DHT22;56269;51.738;21.652;2022-08-04T17:51:16;23.87;67.43
69162;DHT22;56269;51.738;21.652;2022-08-04T17:53:43;23.37;70.36
69162;DHT22;56269;51.738;21.652;2022-08-04T17:56:31;22.74;71.51
69162;DHT22;56269;51.738;21.652;2022-08-04T18:05:09;21.37;76.78
69162;DHT22;56269;51.738;21.652;2022-08-04T18:07:12;21.06;79.24
69162;DHT22;56269;51.738;21.652;2022-08-04T18:12:25;20.62;80.96
69162;DHT22;56269;51.738;21.652;2022-08-04T18:14:54;20.43;81.38
69162;DHT22;56269;51.738;21.652;2022-08-04T18:17:40;20.25;82.64
69162;DHT22;56269;51.738;21.652;2022-08-04T18:20:15;20.01;84.21
69162;DHT22;56269;51.738;21.652;2022-08-04T18:22:48;19.80;84.56
69162;DHT22;56269;51.738;21.652;2022-08-04T18:25:16;19.71;84.68
69162;DHT22;56269;51.738;21.652;2022-08-04T18:27:51;19.56;85.34
69162;DHT22;56269;51.738;21.652;2022-08-04T18:30:19;19.45;85.52
69162;DHT22;56269;51.738;21.652;2022-08-04T18:32:46;19.26;86.57
69162;DHT22;56269;51.738;21.652;2022-08-04T18:35:12;19.09;88.29
69162;DHT22;56269;51.738;21.652;2022-08-04T18:37:39;18.96;88.10
69162;DHT22;56269;51.738;21.652;2022-08-04T18:40:06;18.84;88.56
69162;DHT22;56269;51.738;21.652;2022-08-04T18:42:33;18.81;88.37
69162;DHT22;56269;51.738;21.652;2022-08-04T18:45:00;18.78;88.11
69162;DHT22;56269;51.738;21.652;2022-08-04T18:47:27;18.65;89.57
69162;DHT22;56269;51.738;21.652;2022-08-04T18:49:53;18.54;89.39
69162;DHT22;56269;51.738;21.652;2022-08-04T18:52:20;18.47;89.30
69162;DHT22;56269;51.738;21.652;2022-08-04T18:54:46;18.48;89.30
69162;DHT22;56269;51.738;21.652;2022-08-04T18:57:18;18.41;89.38
69162;DHT22;56269;51.738;21.652;2022-08-04T18:59:45;18.30;90.15
69162;DHT22;56269;51.738;21.652;2022-08-04T19:02:11;18.26;89.77
69162;DHT22;56269;51.738;21.652;2022-08-04T19:04:38;18.20;90.38
69162;DHT22;56269;51.738;21.652;2022-08-04T19:07:05;18.14;90.46
69162;DHT22;56269;51.738;21.652;2022-08-04T19:09:31;18.13;89.86
69162;DHT22;56269;51.738;21.652;2022-08-04T19:11:57;18.08;90.55
69162;DHT22;56269;51.738;21.652;2022-08-04T19:14:24;18.01;91.21
69162;DHT22;56269;51.738;21.652;2022-08-04T19:16:50;18.00;91.19
69162;DHT22;56269;51.738;21.652;2022-08-04T19:19:16;17.90;91.55
69162;DHT22;56269;51.738;21.652;2022-08-04T19:21:43;17.79;91.74
69162;DHT22;56269;51.738;21.652;2022-08-04T19:24:09;17.72;91.64
69162;DHT22;56269;51.738;21.652;2022-08-04T19:26:37;17.72;91.88
69162;DHT22;56269;51.738;21.652;2022-08-04T19:29:04;17.66;92.50
69162;DHT22;56269;51.738;21.652;2022-08-04T19:31:30;17.80;93.37
69162;DHT22;56269;51.738;21.652;2022-08-04T19:33:57;18.00;89.19
69162;DHT22;56269;51.738;21.652;2022-08-04T19:36:24;18.17;90.57
69162;DHT22;56269;51.738;21.652;2022-08-04T19:38:53;18.13;91.08
69162;DHT22;56269;51.738;21.652;2022-08-04T19:41:19;18.04;90.63
69162;DHT22;56269;51.738;21.652;2022-08-04T19:43:45;17.97;90.44
69162;DHT22;56269;51.738;21.652;2022-08-04T19:46:13;17.87;90.54
69162;DHT22;56269;51.738;21.652;2022-08-04T19:48:39;17.70;91.76
69162;DHT22;56269;51.738;21.652;2022-08-04T19:51:06;17.56;93.03
69162;DHT22;56269;51.738;21.652;2022-08-04T19:53:32;17.50;93.30
69162;DHT22;56269;51.738;21.652;2022-08-04T19:55:58;17.47;93.16
69162;DHT22;56269;51.738;21.652;2022-08-04T19:58:24;17.46;93.10
69162;DHT22;56269;51.738;21.652;2022-08-04T20:00:51;17.43;93.27
69162;DHT22;56269;51.738;21.652;2022-08-04T20:03:17;17.38;93.31
69162;DHT22;56269;51.738;21.652;2022-08-04T20:05:44;17.42;92.78
69162;DHT22;56269;51.738;21.652;2022-08-04T20:08:10;17.35;93.52